Borden, South Carolina
Current Conditions -  °F | °C
As of 5:58 PM on Thursday 18 Dec 2014 (Local Time) from KSSC Reporting Station
Clear Clear  
Wind Chill: 49°   Ceiling: Unl
Heat Index: 49°   Visibility: 10mi
Dew Point: 35°   Wind: 0mph
Humidity: 59%   Direction: NA
Pressure: 30.08"   Gusts: NA
Location:  34.1106°N, 80.4967°W
Report Text: KSSC 182258Z AUTO 00000KT 10SM CLR 09/02 A3008 RMK AO2 SLP189 T00930016 $
Loading
Personal Weather Stations






























Interactive Weather Map New forecast layout! Learn more

10-Day Weather Forecast

Advertisements
Track Severe Weather on mobile